Weather at Athens Eleftherios Venizelos International Airport

Public forecast

Using degrees Celsius for public forecast. Weather courtesy of forecast.io.

Current aviation weather report (METAR) for Athens Eleftherios Venizelos International Airport

Retrieved 2022/01/25 10:20 UTC (14 minutes ago):

LGAV 251020Z 02022KT 9000 FEW012 SCT020 03/M04 Q1024 NOSIG

Aviation forecast (TAF) for Athens Eleftherios Venizelos International Airport

Retrieved 2022/01/25 06:12 UTC (4 hours ago):

TAF TAF LGAV 250500Z 2506/2606 02025KT 9999 FEW006 SCT020 BKN070 TEMPO 2506/2514 02030G40KT PROB40 TEMPO 2506/2515 3000 SN SCT006 BKN020 OVC070 PROB30 TEMPO 2506/2509 1000 TSSN SCT004 SCT018CB BKN020 OVC060 BECMG 2516/2518 35015KT FEW018